createdAt,value
2023-04-08T04:00:24.873Z,8.10
2023-04-08T04:04:37.055Z,9.68
2023-04-08T04:08:50.267Z,11.65
2023-04-08T04:13:02.042Z,10.25
2023-04-08T04:17:13.564Z,10.88
2023-04-08T04:21:25.107Z,10.93
2023-04-08T04:25:36.686Z,11.07
2023-04-08T04:29:48.205Z,8.95
2023-04-08T04:33:59.743Z,8.23
2023-04-08T04:38:12.709Z,10.05
2023-04-08T04:42:24.257Z,6.82
2023-04-08T04:46:35.929Z,10.63
2023-04-08T04:50:58.588Z,8.77
2023-04-08T04:55:10.397Z,9.25
2023-04-08T04:59:21.941Z,9.27
2023-04-08T05:03:33.544Z,9.57
2023-04-08T05:07:45.134Z,9.30
2023-04-08T05:11:56.703Z,10.68
2023-04-08T05:16:08.277Z,13.00
2023-04-08T05:20:19.786Z,8.77
2023-04-08T05:24:31.288Z,10.85
2023-04-08T05:28:42.864Z,13.35
2023-04-08T05:32:54.627Z,9.93
2023-04-08T05:37:06.165Z,9.15
2023-04-08T05:41:17.858Z,18.42
2023-04-08T05:45:29.818Z,14.38
2023-04-08T05:49:41.745Z,11.07
2023-04-08T05:53:53.265Z,11.60
2023-04-08T05:58:04.807Z,13.40
2023-04-08T06:02:16.400Z,13.98
2023-04-08T06:06:28.010Z,30.88
2023-04-08T06:10:39.533Z,29.27
2023-04-08T06:14:56.878Z,19.23
2023-04-08T06:19:08.538Z,24.27
2023-04-08T06:23:20.071Z,36.17
2023-04-08T06:27:31.638Z,56.67
2023-04-08T06:31:43.201Z,34.33
2023-04-08T06:36:05.842Z,26.73
2023-04-08T06:40:17.513Z,30.40
2023-04-08T06:44:29.218Z,37.05
2023-04-08T06:48:40.921Z,41.17
2023-04-08T06:52:52.576Z,34.70
2023-04-08T06:57:04.386Z,21.02
2023-04-08T07:01:16.511Z,17.20
2023-04-08T07:05:28.151Z,16.25
2023-04-08T07:09:41.412Z,14.05
2023-04-08T07:13:52.959Z,15.27
2023-04-08T07:18:04.809Z,15.52
2023-04-08T07:22:17.216Z,18.70
2023-04-08T07:26:28.776Z,15.35
2023-04-08T07:30:40.318Z,15.38
2023-04-08T07:34:51.876Z,18.20
2023-04-08T07:39:03.585Z,20.13
2023-04-08T07:43:15.113Z,17.13
2023-04-08T07:47:27.189Z,19.33
2023-04-08T07:51:39.361Z,20.85
2023-04-08T07:55:50.920Z,18.90
2023-04-08T08:00:03.624Z,18.42
2023-04-08T08:04:27.765Z,18.95
2023-04-08T08:08:39.491Z,21.05
2023-04-08T08:12:51.164Z,19.83
2023-04-08T08:17:03.888Z,16.10
2023-04-08T08:21:15.920Z,18.92
2023-04-08T08:25:27.545Z,18.10
2023-04-08T08:29:39.124Z,17.50
2023-04-08T08:33:50.869Z,18.60
2023-04-08T08:38:02.588Z,18.73
2023-04-08T08:42:21.584Z,17.83
2023-04-08T08:46:34.173Z,15.32
2023-04-08T08:50:45.936Z,18.55
2023-04-08T08:54:59.059Z,18.23
2023-04-08T08:59:10.736Z,17.67
2023-04-08T09:03:28.018Z,17.70
2023-04-08T09:07:43.190Z,18.17
2023-04-08T09:12:04.515Z,13.75
2023-04-08T09:16:18.626Z,15.52
2023-04-08T09:20:30.125Z,17.20
2023-04-08T09:24:41.850Z,19.17
2023-04-08T09:29:11.495Z,16.23
2023-04-08T09:33:36.432Z,14.65
2023-04-08T09:37:49.024Z,15.40
2023-04-08T09:42:04.064Z,15.25
2023-04-08T09:46:25.955Z,17.05
2023-04-08T09:50:46.335Z,15.18
2023-04-08T09:55:05.039Z,17.42
2023-04-08T09:59:17.879Z,15.75
2023-04-08T10:03:34.697Z,12.77
2023-04-08T10:07:46.443Z,16.50
2023-04-08T10:11:58.259Z,15.93
2023-04-08T10:16:23.066Z,14.48
2023-04-08T10:20:34.697Z,14.10
2023-04-08T10:25:35.388Z,15.32
2023-04-08T10:29:48.345Z,15.50
2023-04-08T10:34:17.116Z,17.33
2023-04-08T10:38:28.860Z,15.90
2023-04-08T10:42:40.375Z,13.65
2023-04-08T10:46:56.744Z,15.05
2023-04-08T10:51:08.269Z,13.13
2023-04-08T10:55:26.877Z,16.17
2023-04-08T10:59:39.785Z,14.35
2023-04-08T11:03:51.595Z,13.57
2023-04-08T11:08:04.010Z,12.98
2023-04-08T11:12:18.838Z,13.65
2023-04-08T11:16:30.613Z,14.02
2023-04-08T11:20:44.781Z,13.88
2023-04-08T11:24:57.070Z,12.50
2023-04-08T11:29:14.090Z,13.18
2023-04-08T11:33:27.198Z,13.68
2023-04-08T11:37:40.935Z,13.32
2023-04-08T11:41:53.190Z,13.90
2023-04-08T11:46:12.476Z,13.13
2023-04-08T11:50:25.858Z,11.05
2023-04-08T11:54:41.939Z,12.02
2023-04-08T11:58:53.574Z,15.13
2023-04-08T12:03:07.021Z,12.82
2023-04-08T12:07:18.765Z,15.52
2023-04-08T12:11:30.308Z,12.98
2023-04-08T12:15:42.093Z,13.82
2023-04-08T12:19:53.588Z,13.95
2023-04-08T12:24:05.195Z,11.55
2023-04-08T12:28:16.712Z,13.88
2023-04-08T12:32:28.793Z,14.10
2023-04-08T12:36:41.960Z,15.15
2023-04-08T12:40:53.575Z,14.55
2023-04-08T12:45:05.455Z,14.20
2023-04-08T12:49:17.071Z,17.33
2023-04-08T12:53:28.723Z,12.38
2023-04-08T12:57:40.360Z,14.30
2023-04-08T13:01:51.923Z,15.50
2023-04-08T13:06:03.532Z,16.50
2023-04-08T13:10:15.070Z,15.32
2023-04-08T13:14:27.385Z,16.08
2023-04-08T13:18:38.909Z,14.98
2023-04-08T13:22:50.446Z,16.70
2023-04-08T13:27:02.514Z,16.92
2023-04-08T13:31:14.021Z,18.63
2023-04-08T13:35:25.798Z,19.38
2023-04-08T13:39:37.448Z,17.20
2023-04-08T13:43:50.405Z,16.55
2023-04-08T13:48:02.122Z,16.45
2023-04-08T13:52:13.724Z,15.18
2023-04-08T13:56:25.503Z,15.63
2023-04-08T14:00:37.016Z,15.02
2023-04-08T14:04:48.684Z,15.40
2023-04-08T14:09:00.255Z,15.95
2023-04-08T14:13:11.723Z,14.40
2023-04-08T14:17:23.288Z,14.10
2023-04-08T14:21:34.884Z,12.55
2023-04-08T14:25:46.386Z,13.70
2023-04-08T14:29:57.895Z,12.50
2023-04-08T14:34:09.381Z,12.27
2023-04-08T14:38:21.342Z,11.13
2023-04-08T14:42:32.876Z,8.48
2023-04-08T14:46:44.400Z,11.07
2023-04-08T14:50:56.798Z,9.75
2023-04-08T14:55:08.494Z,8.05
2023-04-08T14:59:19.999Z,9.13
2023-04-08T15:03:31.635Z,7.80
2023-04-08T15:07:43.341Z,4.97
2023-04-08T15:11:54.900Z,6.57
2023-04-08T15:16:06.654Z,5.93
2023-04-08T15:20:21.189Z,8.27
2023-04-08T15:24:32.684Z,8.57
2023-04-08T15:28:44.221Z,7.45
2023-04-08T15:32:57.463Z,8.07
2023-04-08T15:37:09.111Z,8.07
2023-04-08T15:41:22.009Z,9.25
2023-04-08T15:45:33.535Z,6.13
2023-04-08T15:49:45.064Z,8.13
2023-04-08T15:53:57.383Z,9.35
2023-04-08T15:58:08.920Z,8.88
2023-04-08T16:02:20.605Z,9.05
2023-04-08T16:06:33.305Z,7.07
2023-04-08T16:10:45.881Z,10.77
2023-04-08T16:14:57.780Z,8.30
2023-04-08T16:19:09.312Z,9.18
2023-04-08T16:23:21.006Z,9.30
2023-04-08T16:27:32.842Z,9.05
2023-04-08T16:31:44.409Z,9.60
2023-04-08T16:35:56.965Z,8.70
2023-04-08T16:40:09.038Z,9.00
2023-04-08T16:44:20.544Z,7.88
2023-04-08T16:48:32.443Z,9.50
2023-04-08T16:52:49.275Z,11.35
2023-04-08T16:57:00.772Z,9.63
2023-04-08T17:01:14.162Z,10.18
2023-04-08T17:05:26.446Z,9.85
2023-04-08T17:09:38.042Z,12.13
2023-04-08T17:13:49.878Z,11.38
2023-04-08T17:18:01.592Z,13.40
2023-04-08T17:22:13.133Z,13.18
2023-04-08T17:26:24.650Z,12.65
2023-04-08T17:30:36.137Z,11.75
2023-04-08T17:34:47.661Z,9.88
2023-04-08T17:38:59.214Z,8.98
2023-04-08T17:43:10.995Z,9.82
2023-04-08T17:47:22.515Z,9.93
2023-04-08T17:51:34.746Z,10.73
2023-04-08T17:55:46.249Z,10.77
2023-04-08T17:59:57.705Z,8.57
2023-04-08T18:04:10.425Z,10.32
2023-04-08T18:08:23.117Z,8.90
2023-04-08T18:12:34.613Z,9.70
2023-04-08T18:16:46.186Z,8.82
2023-04-08T18:20:57.705Z,8.00
2023-04-08T18:25:09.824Z,8.50
2023-04-08T18:29:21.287Z,8.43
2023-04-08T18:33:32.766Z,8.35
2023-04-08T18:37:44.295Z,7.80
2023-04-08T18:41:56.575Z,6.88
2023-04-08T18:46:08.104Z,6.68
2023-04-08T18:50:19.681Z,9.15
2023-04-08T18:54:31.733Z,7.07
2023-04-08T18:58:44.434Z,6.90
2023-04-08T19:02:56.986Z,8.45
2023-04-08T19:07:08.996Z,7.15
2023-04-08T19:11:20.818Z,7.10
2023-04-08T19:15:32.366Z,6.82
2023-04-08T19:19:43.835Z,9.10
2023-04-08T19:23:55.308Z,7.00
2023-04-08T19:28:08.353Z,9.43
2023-04-08T19:32:20.074Z,7.90
2023-04-08T19:36:31.976Z,12.48
2023-04-08T19:40:43.554Z,16.13
2023-04-08T19:44:55.250Z,17.10
2023-04-08T19:49:06.771Z,15.18
2023-04-08T19:53:18.243Z,11.02
2023-04-08T19:57:30.064Z,15.32
2023-04-08T20:01:41.688Z,7.10
2023-04-08T20:05:53.372Z,9.88
2023-04-08T20:10:05.465Z,11.75
2023-04-08T20:14:17.180Z,10.88
2023-04-08T20:18:29.259Z,9.95
2023-04-08T20:22:41.687Z,10.65
2023-04-08T20:26:53.580Z,10.55
2023-04-08T20:31:05.256Z,11.10
2023-04-08T20:35:16.840Z,10.95
2023-04-08T20:39:31.792Z,9.38
2023-04-08T20:43:43.320Z,8.45
2023-04-08T20:47:55.569Z,9.98
2023-04-08T20:52:07.124Z,8.32
2023-04-08T20:56:18.639Z,9.77
2023-04-08T21:00:30.556Z,8.23
2023-04-08T21:04:42.036Z,9.00
2023-04-08T21:08:53.832Z,9.38
2023-04-08T21:13:05.648Z,11.13
2023-04-08T21:17:17.320Z,11.48
2023-04-08T21:21:28.799Z,9.07
2023-04-08T21:25:40.369Z,12.52
2023-04-08T21:29:54.713Z,13.10
